Time;durP1;ratioP1;P1;durP2;ratioP2;P2;SDS_P1;SDS_P2;PMS_P1;PMS_P2;Temp;Humidity;BMP_temperature;BMP_pressure;BME280_temperature;BME280_humidity;BME280_pressure;Samples;Min_cycle;Max_cycle;Signal;HPM_P1;HPM_P2
2023/03/13 00:00:07;;;;;;;17.92;3.40;;;9.30;99.90;;;;;;7334306;32;20332;-55
2023/03/13 00:04:09;;;;;;;24.17;4.00;;;9.30;99.90;;;;;;7345762;32;20551;-56
2023/03/13 00:08:11;;;;;;;23.25;4.00;;;9.40;99.90;;;;;;7340991;32;20103;-56
2023/03/13 00:12:13;;;;;;;22.67;4.60;;;9.30;99.90;;;;;;7341514;32;20116;-56
2023/03/13 00:16:15;;;;;;;14.05;3.15;;;9.30;99.90;;;;;;7337932;32;20115;-56
2023/03/13 00:20:17;;;;;;;17.45;3.42;;;9.30;99.90;;;;;;7335024;32;20135;-56
2023/03/13 00:24:19;;;;;;;19.60;3.30;;;9.30;99.90;;;;;;7335003;32;20217;-56
2023/03/13 00:28:20;;;;;;;16.90;3.20;;;9.30;99.90;;;;;;7340038;32;20122;-56
2023/03/13 00:32:22;;;;;;;20.48;3.37;;;9.30;99.90;;;;;;7337171;32;20126;-56
2023/03/13 00:36:27;;;;;;;13.65;3.70;;;9.30;99.90;;;;;;7342004;32;20130;-55
2023/03/13 00:40:29;;;;;;;22.15;3.58;;;9.30;99.90;;;;;;7339740;32;20138;-56
2023/03/13 00:44:31;;;;;;;19.55;3.08;;;9.20;99.90;;;;;;7339473;32;20581;-55
2023/03/13 00:48:33;;;;;;;18.60;3.40;;;9.10;99.90;;;;;;7338198;32;20202;-56
2023/03/13 00:52:35;;;;;;;18.83;3.53;;;9.10;99.90;;;;;;7341129;32;20574;-55
2023/03/13 00:56:36;;;;;;;20.85;3.87;;;9.10;99.90;;;;;;7334137;32;20140;-56
2023/03/13 01:00:38;;;;;;;19.00;3.25;;;9.10;99.90;;;;;;7340312;32;21157;-56
2023/03/13 01:04:39;;;;;;;18.83;3.28;;;9.10;99.90;;;;;;7329769;32;20139;-56
2023/03/13 01:08:41;;;;;;;18.37;3.67;;;9.00;99.90;;;;;;7339815;32;20111;-55
2023/03/13 01:12:43;;;;;;;20.55;3.35;;;9.10;99.90;;;;;;7343871;32;20395;-56
2023/03/13 01:16:45;;;;;;;22.15;3.45;;;9.10;99.90;;;;;;7336007;32;20108;-55
2023/03/13 01:20:47;;;;;;;25.62;3.67;;;9.20;99.90;;;;;;7346254;32;20135;-56
2023/03/13 01:24:51;;;;;;;16.90;2.95;;;9.10;99.90;;;;;;7333722;32;20292;-56
2023/03/13 01:28:54;;;;;;;18.10;3.03;;;9.10;99.90;;;;;;7335394;32;20199;-55
2023/03/13 01:32:56;;;;;;;22.00;3.05;;;9.10;99.90;;;;;;7335384;32;20485;-55
2023/03/13 01:36:57;;;;;;;19.40;3.55;;;9.10;99.90;;;;;;7332376;32;20194;-55
2023/03/13 01:40:59;;;;;;;17.80;3.42;;;9.20;99.90;;;;;;7331728;32;20218;-55
2023/03/13 01:45:01;;;;;;;16.37;3.40;;;9.20;99.90;;;;;;7339943;32;21009;-56
2023/03/13 01:49:15;;;;;;;15.77;3.15;;;9.30;99.90;;;;;;7332296;32;20572;-55
2023/03/13 01:53:17;;;;;;;16.62;2.50;;;9.40;99.90;;;;;;7340370;32;20107;-55
2023/03/13 01:57:31;;;;;;;17.15;2.92;;;9.40;99.90;;;;;;7332233;32;20144;-55
2023/03/13 02:01:34;;;;;;;23.33;3.55;;;9.40;99.90;;;;;;7332079;32;20261;-55
2023/03/13 02:05:37;;;;;;;20.15;3.30;;;9.30;99.90;;;;;;7333866;32;20477;-55
2023/03/13 02:09:40;;;;;;;17.37;2.90;;;9.30;99.90;;;;;;7340089;32;20375;-55
2023/03/13 02:13:43;;;;;;;15.18;2.97;;;9.30;99.90;;;;;;7326617;32;20174;-55
2023/03/13 02:17:46;;;;;;;17.20;2.40;;;9.30;99.90;;;;;;7330914;32;20166;-55
2023/03/13 02:21:54;;;;;;;16.50;3.03;;;9.30;99.90;;;;;;7339868;32;20497;-55
2023/03/13 02:25:56;;;;;;;17.23;3.00;;;9.30;99.90;;;;;;7326745;32;20108;-55
2023/03/13 02:30:01;;;;;;;25.58;3.22;;;9.30;99.90;;;;;;7326618;32;20175;-56
2023/03/13 02:34:03;;;;;;;17.23;3.45;;;9.30;99.90;;;;;;7333253;32;20221;-55
2023/03/13 02:38:09;;;;;;;17.52;2.85;;;9.40;99.90;;;;;;7331565;32;20107;-55
2023/03/13 02:42:13;;;;;;;15.68;2.83;;;9.40;99.90;;;;;;7329206;32;20330;-55
2023/03/13 02:46:18;;;;;;;12.75;2.28;;;9.40;99.90;;;;;;7341369;32;20099;-55
2023/03/13 02:50:20;;;;;;;16.77;2.60;;;9.50;99.90;;;;;;7340198;32;20498;-55
2023/03/13 02:54:29;;;;;;;16.80;2.62;;;9.50;99.90;;;;;;7342039;32;20100;-55
2023/03/13 02:58:41;;;;;;;7.70;2.12;;;9.50;99.90;;;;;;7338777;32;20517;-55
2023/03/13 03:02:51;;;;;;;12.45;2.00;;;9.60;99.90;;;;;;7340774;32;20218;-55
2023/03/13 03:06:53;;;;;;;12.70;2.45;;;9.60;99.90;;;;;;7332445;32;20264;-55
2023/03/13 03:10:54;;;;;;;13.65;2.20;;;9.70;99.90;;;;;;7330659;32;20586;-55
2023/03/13 03:14:56;;;;;;;14.68;2.00;;;9.70;99.90;;;;;;7341614;32;20484;-55
2023/03/13 03:18:58;;;;;;;10.02;1.58;;;9.70;99.90;;;;;;7331978;32;20107;-55
2023/03/13 03:22:59;;;;;;;9.52;1.90;;;9.70;99.90;;;;;;7332493;32;20129;-55
2023/03/13 03:27:01;;;;;;;13.73;1.80;;;9.80;99.90;;;;;;7327926;32;20115;-55
2023/03/13 03:31:07;;;;;;;8.07;1.80;;;9.80;99.90;;;;;;7337271;32;20541;-55
2023/03/13 03:35:09;;;;;;;9.57;2.13;;;9.90;99.90;;;;;;7319418;32;22443;-55
2023/03/13 03:39:11;;;;;;;9.23;1.30;;;9.90;99.90;;;;;;7341306;32;20145;-55
2023/03/13 03:43:13;;;;;;;10.82;2.03;;;9.90;99.90;;;;;;7335928;32;20245;-54
2023/03/13 03:47:14;;;;;;;5.32;1.40;;;10.00;99.90;;;;;;7329880;32;20352;-54
2023/03/13 03:51:16;;;;;;;5.70;1.20;;;10.00;99.90;;;;;;7341521;32;20224;-54
2023/03/13 03:55:19;;;;;;;5.43;1.08;;;10.00;99.90;;;;;;7333893;32;20498;-54
2023/03/13 03:59:21;;;;;;;6.53;1.12;;;10.10;99.90;;;;;;7330774;32;20243;-54
2023/03/13 04:03:23;;;;;;;5.75;1.00;;;10.00;99.90;;;;;;7334842;32;20563;-54
2023/03/13 04:07:25;;;;;;;4.40;1.10;;;10.10;99.90;;;;;;7331016;32;20393;-54
2023/03/13 04:11:26;;;;;;;7.47;1.40;;;10.10;99.90;;;;;;7336051;32;20170;-54
2023/03/13 04:15:28;;;;;;;8.98;1.00;;;10.10;99.90;;;;;;7332843;32;20204;-54
2023/03/13 04:19:30;;;;;;;3.87;0.95;;;10.20;99.90;;;;;;7335160;32;20832;-54
2023/03/13 04:23:31;;;;;;;6.32;1.30;;;10.20;99.90;;;;;;7333466;32;20172;-55
2023/03/13 04:27:34;;;;;;;6.28;1.05;;;10.20;99.90;;;;;;7327148;32;20195;-54
2023/03/13 04:31:35;;;;;;;3.95;1.05;;;10.20;99.90;;;;;;7331514;32;20157;-54
2023/03/13 04:35:37;;;;;;;3.10;0.90;;;10.30;99.90;;;;;;7335869;32;20411;-55
2023/03/13 04:39:39;;;;;;;4.20;1.15;;;10.20;99.90;;;;;;7335581;32;20510;-55
2023/03/13 04:43:40;;;;;;;2.53;0.93;;;10.20;99.90;;;;;;7328436;32;20130;-55
2023/03/13 04:47:42;;;;;;;4.70;0.88;;;10.20;99.90;;;;;;7338095;32;20165;-54
2023/03/13 04:51:44;;;;;;;2.50;0.95;;;10.30;99.90;;;;;;7339932;32;20274;-55
2023/03/13 04:55:47;;;;;;;1.70;0.80;;;10.40;99.90;;;;;;7335082;32;20235;-55
2023/03/13 04:59:48;;;;;;;4.37;1.02;;;10.30;99.90;;;;;;7341473;32;20129;-55
2023/03/13 05:03:50;;;;;;;2.67;1.00;;;10.30;99.90;;;;;;7330711;32;20171;-55
2023/03/13 05:07:52;;;;;;;2.35;0.80;;;10.60;99.90;;;;;;7333642;32;20126;-54
2023/03/13 05:11:54;;;;;;;3.72;1.02;;;10.70;99.90;;;;;;7341555;32;20632;-55
2023/03/13 05:15:58;;;;;;;3.80;1.05;;;11.00;99.90;;;;;;7339800;32;20392;-55
2023/03/13 05:20:00;;;;;;;2.70;1.00;;;11.20;99.90;;;;;;7334247;32;20604;-55
2023/03/13 05:24:02;;;;;;;2.33;0.90;;;11.30;99.90;;;;;;7334739;32;20175;-55
2023/03/13 05:28:04;;;;;;;5.03;1.37;;;11.40;99.90;;;;;;7332866;32;20609;-54
2023/03/13 05:32:06;;;;;;;2.20;1.25;;;11.50;99.90;;;;;;7341875;32;20178;-55
2023/03/13 05:36:08;;;;;;;2.03;1.02;;;11.70;99.90;;;;;;7335913;32;20107;-55
2023/03/13 05:40:10;;;;;;;1.77;1.30;;;11.70;99.90;;;;;;7332855;32;20551;-56
2023/03/13 05:44:12;;;;;;;2.50;1.62;;;11.80;99.90;;;;;;7334916;32;20255;-55
2023/03/13 05:48:13;;;;;;;5.03;1.33;;;11.80;99.90;;;;;;7342690;32;20147;-54
2023/03/13 05:52:15;;;;;;;2.35;1.10;;;11.90;99.90;;;;;;7331989;32;20242;-55
2023/03/13 05:56:16;;;;;;;2.75;1.17;;;11.90;99.90;;;;;;7336743;32;20112;-56
2023/03/13 06:00:18;;;;;;;3.67;1.40;;;12.00;99.90;;;;;;7339457;32;20167;-57
2023/03/13 06:04:20;;;;;;;1.75;1.10;;;12.00;99.90;;;;;;7337307;32;20119;-56
2023/03/13 06:08:22;;;;;;;4.18;1.23;;;12.00;99.90;;;;;;7334881;32;20119;-56
2023/03/13 06:12:24;;;;;;;3.55;1.08;;;12.00;99.90;;;;;;7337508;32;20596;-56
2023/03/13 06:16:25;;;;;;;3.67;1.25;;;12.10;99.90;;;;;;7336084;32;20129;-56
2023/03/13 06:20:27;;;;;;;7.40;2.50;;;12.10;99.90;;;;;;7335515;32;20111;-56
2023/03/13 06:24:29;;;;;;;2.37;1.10;;;12.10;99.90;;;;;;7331879;32;20486;-56
2023/03/13 06:28:30;;;;;;;2.35;1.15;;;12.20;99.90;;;;;;7333509;32;20127;-56
2023/03/13 06:32:33;;;;;;;3.22;1.02;;;12.30;99.90;;;;;;7330536;32;20133;-56
2023/03/13 06:36:35;;;;;;;5.18;1.02;;;12.40;99.90;;;;;;7333433;32;20178;-56
2023/03/13 06:40:37;;;;;;;3.28;1.33;;;12.40;99.90;;;;;;7338208;32;20299;-55
2023/03/13 06:44:40;;;;;;;3.33;1.65;;;12.50;99.90;;;;;;7326064;32;20182;-57
2023/03/13 06:48:43;;;;;;;2.60;1.00;;;12.60;99.90;;;;;;7334968;32;20108;-56
2023/03/13 06:52:46;;;;;;;3.22;1.23;;;12.70;99.90;;;;;;7343979;32;20599;-56
2023/03/13 06:56:48;;;;;;;1.73;0.90;;;12.70;99.90;;;;;;7330815;32;20259;-56
2023/03/13 07:00:50;;;;;;;2.83;1.20;;;12.70;99.90;;;;;;7338103;32;20545;-56
2023/03/13 07:04:51;;;;;;;4.85;1.40;;;12.70;99.90;;;;;;7335660;32;20208;-56
2023/03/13 07:08:53;;;;;;;2.45;1.02;;;12.80;99.90;;;;;;7327760;32;20166;-56
2023/03/13 07:12:55;;;;;;;2.33;1.20;;;12.80;99.90;;;;;;7329424;32;20132;-56
2023/03/13 07:16:58;;;;;;;4.65;1.08;;;12.80;99.90;;;;;;7336043;32;20309;-56
2023/03/13 07:21:03;;;;;;;6.37;1.40;;;12.80;99.90;;;;;;7331243;32;20777;-56
2023/03/13 07:25:06;;;;;;;3.70;1.60;;;12.90;99.90;;;;;;7339339;32;20107;-56
2023/03/13 07:29:08;;;;;;;3.95;1.40;;;13.00;99.90;;;;;;7342946;32;20224;-56
2023/03/13 07:33:09;;;;;;;4.30;1.35;;;13.00;99.90;;;;;;7335228;32;20157;-56
2023/03/13 07:37:12;;;;;;;2.05;1.20;;;13.00;99.90;;;;;;7333885;32;20454;-56
2023/03/13 07:41:14;;;;;;;3.97;1.58;;;13.10;99.90;;;;;;7340882;32;20372;-57
2023/03/13 07:45:15;;;;;;;4.62;1.42;;;13.10;99.90;;;;;;7330621;32;20102;-56
2023/03/13 07:49:17;;;;;;;5.78;1.58;;;13.10;99.90;;;;;;7337442;32;20112;-56
2023/03/13 07:53:22;;;;;;;5.30;1.55;;;13.10;99.90;;;;;;7329837;32;20099;-56
2023/03/13 07:57:23;;;;;;;4.30;1.30;;;13.10;99.90;;;;;;7337620;32;20129;-55
2023/03/13 08:01:26;;;;;;;7.95;2.10;;;13.10;99.90;;;;;;7342663;32;20184;-55
2023/03/13 08:05:31;;;;;;;4.28;1.73;;;13.20;99.90;;;;;;7330135;32;20099;-57
2023/03/13 08:09:33;;;;;;;5.87;1.62;;;13.20;99.90;;;;;;7331907;32;20204;-57
2023/03/13 08:13:35;;;;;;;2.72;1.65;;;13.20;99.90;;;;;;7338761;32;20238;-57
2023/03/13 08:17:37;;;;;;;6.50;1.60;;;13.20;99.90;;;;;;7347610;32;20125;-59
2023/03/13 08:21:38;;;;;;;8.30;1.90;;;13.20;99.90;;;;;;7342348;32;20213;-57
2023/03/13 08:25:40;;;;;;;6.50;1.80;;;13.20;99.90;;;;;;7336986;32;20521;-57
2023/03/13 08:29:42;;;;;;;9.65;1.75;;;13.30;99.90;;;;;;7334936;32;20574;-57
2023/03/13 08:33:45;;;;;;;5.47;1.67;;;13.40;99.90;;;;;;7336662;32;20209;-57
2023/03/13 08:37:46;;;;;;;6.78;1.77;;;13.40;99.90;;;;;;7344793;32;20138;-57
2023/03/13 08:41:48;;;;;;;5.62;2.17;;;13.50;99.90;;;;;;7333767;32;20162;-57
2023/03/13 08:45:54;;;;;;;7.53;2.00;;;13.40;99.90;;;;;;7340809;32;20130;-57
2023/03/13 08:49:57;;;;;;;8.40;2.20;;;13.50;99.90;;;;;;7338287;32;20130;-57
2023/03/13 08:54:00;;;;;;;4.53;1.35;;;13.60;99.90;;;;;;7334698;32;20176;-57
2023/03/13 08:58:02;;;;;;;8.57;2.37;;;13.70;99.90;;;;;;7336879;32;20137;-57
2023/03/13 09:02:04;;;;;;;8.10;2.15;;;13.50;99.90;;;;;;7343810;32;20630;-57
2023/03/13 09:06:07;;;;;;;9.00;1.90;;;13.50;99.90;;;;;;7344443;32;20141;-57
2023/03/13 09:10:09;;;;;;;8.48;1.85;;;13.60;99.90;;;;;;7339458;32;20708;-57
2023/03/13 09:14:11;;;;;;;6.35;2.10;;;13.70;99.90;;;;;;7333655;32;20137;-57
2023/03/13 09:18:13;;;;;;;5.18;1.77;;;13.70;99.90;;;;;;7340508;32;20220;-57
2023/03/13 09:22:15;;;;;;;5.15;1.83;;;13.80;99.90;;;;;;7336746;32;21760;-56
2023/03/13 09:26:18;;;;;;;6.85;1.87;;;13.80;99.90;;;;;;7333773;32;20496;-57
2023/03/13 09:30:23;;;;;;;5.87;1.80;;;13.70;99.90;;;;;;7339846;32;20150;-57
2023/03/13 09:34:26;;;;;;;6.90;1.95;;;13.60;99.90;;;;;;7339011;32;20222;-56
2023/03/13 09:38:28;;;;;;;4.80;1.90;;;13.70;99.90;;;;;;7344694;32;20133;-57
2023/03/13 09:43:10;;;;;;;6.62;1.80;;;13.80;99.90;;;;;;7339787;32;20162;-57
2023/03/13 09:47:30;;;;;;;7.70;2.28;;;13.90;99.90;;;;;;7330074;32;20945;-55
2023/03/13 09:51:35;;;;;;;10.00;1.98;;;14.00;99.90;;;;;;7344379;32;20103;-55
2023/03/13 09:55:38;;;;;;;5.75;2.50;;;13.80;99.90;;;;;;7336768;32;20561;-58
2023/03/13 09:59:42;;;;;;;6.93;2.22;;;13.70;99.90;;;;;;7335002;32;20619;-55
2023/03/13 10:04:24;;;;;;;6.40;1.70;;;13.70;99.90;;;;;;7335893;32;20738;-55
2023/03/13 10:08:35;;;;;;;5.45;2.08;;;14.00;99.90;;;;;;7326694;32;20207;-56
2023/03/13 10:12:43;;;;;;;7.15;1.75;;;14.40;99.90;;;;;;7338198;32;20115;-56
2023/03/13 10:16:49;;;;;;;3.92;1.70;;;14.70;99.90;;;;;;7336885;32;20172;-55
2023/03/13 10:20:59;;;;;;;3.45;1.40;;;14.60;99.90;;;;;;7338587;32;20108;-55
2023/03/13 10:25:06;;;;;;;3.17;1.37;;;14.60;99.90;;;;;;7337653;32;20103;-55
2023/03/13 10:29:23;;;;;;;6.78;1.80;;;14.50;99.90;;;;;;7340283;32;20509;-55
2023/03/13 10:33:27;;;;;;;6.90;1.50;;;14.60;99.90;;;;;;7329608;32;20249;-55
2023/03/13 10:37:41;;;;;;;5.25;1.55;;;14.50;99.90;;;;;;7338929;32;20106;-55
2023/03/13 10:41:43;;;;;;;3.92;1.60;;;14.70;99.90;;;;;;7334692;32;20567;-55
2023/03/13 10:45:46;;;;;;;7.03;1.87;;;14.70;99.90;;;;;;7342211;32;20111;-55
2023/03/13 10:49:54;;;;;;;2.45;1.10;;;14.80;99.90;;;;;;7340075;32;20562;-55
2023/03/13 10:53:55;;;;;;;3.72;1.25;;;14.80;99.90;;;;;;7331220;32;20129;-56
2023/03/13 10:58:02;;;;;;;5.40;1.20;;;14.90;99.90;;;;;;7339909;32;20238;-56
2023/03/13 11:02:19;;;;;;;4.65;0.98;;;15.00;99.90;;;;;;7339484;32;20616;-56
2023/03/13 11:06:30;;;;;;;3.65;0.90;;;15.20;99.90;;;;;;7333878;32;20203;-56
2023/03/13 11:10:35;;;;;;;5.82;1.27;;;15.20;99.90;;;;;;7336043;32;20146;-56
2023/03/13 11:14:37;;;;;;;4.28;1.10;;;15.30;99.90;;;;;;7338543;32;20154;-56
2023/03/13 11:19:02;;;;;;;3.75;0.93;;;15.50;99.90;;;;;;7336756;32;20287;-56
2023/03/13 11:23:24;;;;;;;3.70;0.80;;;15.50;99.90;;;;;;7333294;32;20303;-56
2023/03/13 11:27:34;;;;;;;4.60;0.80;;;15.50;99.90;;;;;;7327015;32;20133;-55
2023/03/13 11:32:21;;;;;;;2.50;0.82;;;15.80;99.90;;;;;;7332544;32;20111;-54
2023/03/13 11:36:40;;;;;;;4.30;0.68;;;16.40;99.90;;;;;;7304946;32;20278;-53
2023/03/13 11:40:47;;;;;;;3.60;0.93;;;16.50;99.90;;;;;;7330389;32;20104;-55
2023/03/13 11:45:15;;;;;;;4.25;0.70;;;16.80;99.90;;;;;;7338809;32;20135;-55
2023/03/13 11:49:30;;;;;;;2.53;0.80;;;17.00;99.90;;;;;;7319711;32;20236;-55
2023/03/13 11:53:46;;;;;;;5.40;0.80;;;17.90;99.90;;;;;;7332999;32;20569;-55
2023/03/13 11:58:30;;;;;;;4.27;0.60;;;18.60;99.90;;;;;;7337483;32;20449;-55
2023/03/13 12:02:38;;;;;;;8.32;0.80;;;20.30;99.90;;;;;;7340809;32;20182;-56
2023/03/13 12:06:49;;;;;;;3.10;0.60;;;19.90;99.90;;;;;;7336505;32;20134;-56
2023/03/13 12:11:05;;;;;;;3.92;0.70;;;18.80;99.90;;;;;;7333610;32;20622;-56
2023/03/13 12:15:17;;;;;;;7.35;0.70;;;18.10;99.90;;;;;;7339191;32;20111;-56
2023/03/13 12:19:31;;;;;;;5.20;0.55;;;17.20;99.90;;;;;;7338824;32;20158;-56
2023/03/13 12:23:44;;;;;;;4.07;0.68;;;17.90;99.90;;;;;;7335512;32;20129;-55
2023/03/13 12:27:53;;;;;;;2.60;0.80;;;17.70;99.90;;;;;;7337858;32;20133;-56
2023/03/13 12:32:07;;;;;;;1.85;0.68;;;17.50;99.90;;;;;;7331289;32;20429;-56
2023/03/13 12:36:39;;;;;;;7.00;0.80;;;17.10;99.90;;;;;;7333915;32;20143;-56
2023/03/13 12:40:50;;;;;;;4.72;0.75;;;16.60;99.90;;;;;;7336694;32;20459;-56
2023/03/13 12:44:53;;;;;;;2.33;0.75;;;16.40;99.90;;;;;;7334055;32;20143;-56
2023/03/13 12:49:17;;;;;;;4.87;0.75;;;16.50;99.90;;;;;;7333115;32;20206;-57
2023/03/13 12:53:21;;;;;;;10.63;1.02;;;17.00;99.90;;;;;;7338044;32;20254;-56
2023/03/13 12:57:42;;;;;;;5.87;0.70;;;17.10;99.90;;;;;;7332441;32;20099;-57
2023/03/13 13:01:52;;;;;;;7.68;0.80;;;17.00;99.90;;;;;;7337159;32;20634;-56
2023/03/13 13:06:12;;;;;;;2.85;0.65;;;16.90;99.90;;;;;;7341061;32;20198;-56
2023/03/13 13:10:23;;;;;;;2.47;0.52;;;17.20;99.90;;;;;;7330899;32;20423;-56
2023/03/13 13:14:25;;;;;;;7.82;0.90;;;17.00;99.90;;;;;;7334278;32;20202;-56
2023/03/13 13:18:31;;;;;;;4.00;0.80;;;16.50;99.90;;;;;;7332982;32;20502;-56
2023/03/13 13:22:36;;;;;;;3.85;1.10;;;16.30;99.90;;;;;;7337223;32;20454;-55
2023/03/13 13:26:46;;;;;;;7.15;0.98;;;16.20;99.90;;;;;;7332869;32;20245;-56
2023/03/13 13:30:53;;;;;;;6.70;0.90;;;16.70;99.90;;;;;;7336093;32;20132;-56
2023/03/13 13:35:11;;;;;;;6.62;0.73;;;16.70;99.90;;;;;;7333127;32;20140;-56
2023/03/13 13:39:38;;;;;;;10.93;1.10;;;16.50;99.90;;;;;;7340372;32;20134;-54
2023/03/13 13:43:47;;;;;;;2.58;0.73;;;16.50;99.90;;;;;;7336674;32;20557;-54
2023/03/13 13:47:50;;;;;;;5.32;0.80;;;16.50;99.90;;;;;;7334606;32;20217;-55
2023/03/13 13:52:01;;;;;;;6.18;0.80;;;17.00;99.90;;;;;;7337936;32;20183;-55
2023/03/13 13:56:09;;;;;;;1.95;0.68;;;17.30;99.90;;;;;;7338492;32;20175;-56
2023/03/13 14:00:26;;;;;;;8.57;0.90;;;17.00;99.90;;;;;;7336092;32;20473;-56
2023/03/13 14:05:00;;;;;;;;;;;16.70;99.90;;;;;;7332606;32;20725;-56
2023/03/13 14:09:21;;;;;;;2.37;0.60;;;16.50;99.90;;;;;;7305945;32;20361;-60
2023/03/13 14:13:23;;;;;;;6.28;0.90;;;16.30;99.90;;;;;;7338465;32;20165;-56
2023/03/13 14:17:25;;;;;;;5.07;0.70;;;16.10;99.90;;;;;;7332174;32;20209;-56
2023/03/13 14:21:27;;;;;;;6.78;1.05;;;16.10;99.90;;;;;;7341465;32;20107;-56
2023/03/13 14:25:41;;;;;;;3.75;0.82;;;16.30;99.90;;;;;;7336019;32;20108;-56
2023/03/13 14:29:59;;;;;;;6.32;1.00;;;16.40;99.90;;;;;;7338729;32;20115;-56
2023/03/13 14:34:11;;;;;;;2.67;0.60;;;16.40;99.90;;;;;;7335443;32;20111;-55
2023/03/13 14:38:21;;;;;;;6.62;0.90;;;16.40;99.90;;;;;;7344588;32;20107;-56
2023/03/13 14:42:23;;;;;;;4.55;0.70;;;16.40;99.90;;;;;;7333600;32;20139;-56
2023/03/13 14:46:32;;;;;;;5.32;0.82;;;16.30;99.90;;;;;;7342436;32;20225;-56
2023/03/13 14:50:34;;;;;;;13.70;1.00;;;16.00;99.90;;;;;;7333282;32;20193;-56
2023/03/13 14:54:54;;;;;;;4.20;0.75;;;16.00;99.90;;;;;;7329628;32;20111;-55
2023/03/13 14:59:14;;;;;;;5.50;0.80;;;16.10;99.90;;;;;;7340548;32;20120;-56
2023/03/13 15:03:17;;;;;;;6.62;1.23;;;16.10;99.90;;;;;;7339357;32;20111;-56
2023/03/13 15:07:19;;;;;;;5.35;0.70;;;16.10;99.90;;;;;;7340827;32;20114;-56
2023/03/13 15:11:30;;;;;;;3.83;0.70;;;16.10;99.90;;;;;;7343463;32;21640;-56
2023/03/13 15:15:32;;;;;;;3.20;0.62;;;16.10;99.90;;;;;;7336527;32;20108;-56
2023/03/13 15:19:34;;;;;;;3.20;0.95;;;16.00;99.90;;;;;;7336615;32;20107;-56
2023/03/13 15:23:35;;;;;;;2.65;1.00;;;16.00;99.90;;;;;;7337059;32;20327;-56
2023/03/13 15:27:37;;;;;;;3.95;1.20;;;15.80;99.90;;;;;;7336494;32;20569;-56
2023/03/13 15:31:39;;;;;;;2.78;0.73;;;15.80;99.90;;;;;;7332248;32;20610;-56
2023/03/13 15:35:42;;;;;;;2.53;0.70;;;16.20;99.90;;;;;;7333371;32;20111;-56
2023/03/13 15:39:44;;;;;;;2.40;0.70;;;16.30;99.90;;;;;;7337130;32;20150;-56
2023/03/13 15:43:46;;;;;;;1.15;0.57;;;16.10;99.90;;;;;;7335382;32;20553;-56
2023/03/13 15:47:48;;;;;;;2.92;0.77;;;15.90;99.90;;;;;;7335442;32;20256;-56
2023/03/13 15:51:50;;;;;;;2.45;0.70;;;16.00;99.90;;;;;;7328007;32;20168;-56
2023/03/13 15:55:54;;;;;;;2.58;0.80;;;16.20;99.90;;;;;;7336896;32;20107;-56
2023/03/13 15:59:56;;;;;;;2.80;0.90;;;16.20;99.90;;;;;;7332919;32;20130;-56
2023/03/13 16:03:59;;;;;;;1.65;0.80;;;16.10;99.90;;;;;;7340047;32;20125;-56
2023/03/13 16:08:01;;;;;;;4.55;1.00;;;16.00;99.90;;;;;;7333380;32;20663;-56
2023/03/13 16:12:02;;;;;;;5.70;1.00;;;15.90;99.90;;;;;;7337484;32;20248;-56
2023/03/13 16:16:35;;;;;;;3.50;0.52;;;15.80;99.90;;;;;;7336699;32;20268;-56
2023/03/13 16:20:38;;;;;;;4.28;0.70;;;15.80;99.90;;;;;;7330574;32;20112;-56
2023/03/13 16:24:40;;;;;;;2.90;0.82;;;15.70;99.90;;;;;;7334272;32;20181;-56
2023/03/13 16:28:42;;;;;;;6.18;1.35;;;15.50;99.90;;;;;;7343214;32;20668;-56
2023/03/13 16:32:45;;;;;;;4.57;1.02;;;15.40;99.90;;;;;;7339594;32;20607;-56
2023/03/13 16:36:46;;;;;;;3.67;0.88;;;15.20;99.90;;;;;;7342579;32;20447;-56
2023/03/13 16:40:48;;;;;;;4.80;1.02;;;15.10;99.90;;;;;;7337690;32;20187;-56
2023/03/13 16:44:50;;;;;;;4.97;0.90;;;15.00;99.90;;;;;;7344626;32;20198;-56
2023/03/13 16:48:52;;;;;;;7.40;1.10;;;14.90;99.90;;;;;;7341115;32;20125;-56
2023/03/13 16:52:54;;;;;;;5.07;1.00;;;14.90;99.90;;;;;;7337201;32;20112;-56
2023/03/13 16:56:57;;;;;;;2.85;1.00;;;14.90;99.90;;;;;;7337405;32;20106;-57
2023/03/13 17:01:03;;;;;;;3.97;0.80;;;14.80;99.90;;;;;;7339316;32;20143;-55
2023/03/13 17:05:07;;;;;;;8.90;1.25;;;14.60;99.90;;;;;;7336275;32;20291;-57
2023/03/13 17:09:13;;;;;;;2.87;1.00;;;14.70;99.90;;;;;;7331300;32;20308;-56
2023/03/13 17:13:18;;;;;;;7.28;1.23;;;14.50;99.90;;;;;;7338189;32;20387;-56
2023/03/13 17:17:21;;;;;;;6.68;1.23;;;14.40;99.90;;;;;;7336905;32;20103;-57
2023/03/13 17:21:25;;;;;;;9.73;1.00;;;14.40;99.90;;;;;;7338485;32;20252;-57
2023/03/13 17:25:27;;;;;;;8.45;1.20;;;14.40;99.90;;;;;;7333540;32;20104;-57
2023/03/13 17:29:29;;;;;;;3.45;1.20;;;14.30;99.90;;;;;;7333928;32;20709;-56
2023/03/13 17:33:30;;;;;;;3.70;1.02;;;14.20;99.90;;;;;;7336934;32;20126;-57
2023/03/13 17:37:34;;;;;;;6.70;1.17;;;14.00;99.90;;;;;;7333788;32;20210;-57
2023/03/13 17:41:35;;;;;;;5.53;1.40;;;14.00;99.90;;;;;;7338698;32;20852;-57
2023/03/13 17:45:37;;;;;;;10.00;1.62;;;14.00;99.90;;;;;;7341835;32;20198;-55
2023/03/13 17:49:39;;;;;;;5.72;1.27;;;14.10;99.90;;;;;;7340689;32;20255;-56
2023/03/13 17:53:40;;;;;;;5.78;1.05;;;13.90;99.90;;;;;;7343296;32;20220;-56
2023/03/13 17:57:42;;;;;;;5.82;1.30;;;13.90;99.90;;;;;;7338132;32;20235;-56
2023/03/13 18:01:44;;;;;;;4.62;1.05;;;13.70;99.90;;;;;;7335470;32;20186;-55
2023/03/13 18:05:46;;;;;;;11.15;1.35;;;13.70;99.90;;;;;;7339629;32;20111;-55
2023/03/13 18:09:48;;;;;;;3.90;1.08;;;13.70;99.90;;;;;;7336467;32;20166;-55
2023/03/13 18:13:50;;;;;;;5.55;1.20;;;13.50;99.90;;;;;;7343135;32;20139;-56
2023/03/13 18:17:52;;;;;;;4.82;1.10;;;13.50;99.90;;;;;;7336759;32;20123;-56
2023/03/13 18:21:54;;;;;;;6.55;1.60;;;13.40;99.90;;;;;;7338780;32;20115;-55
2023/03/13 18:25:57;;;;;;;5.87;1.40;;;13.50;99.90;;;;;;7332415;32;20458;-55
2023/03/13 18:29:58;;;;;;;6.43;1.20;;;13.50;99.90;;;;;;7343566;32;20195;-56
2023/03/13 18:34:02;;;;;;;3.35;1.10;;;13.30;99.90;;;;;;7331391;32;20159;-56
2023/03/13 18:38:04;;;;;;;7.90;1.73;;;13.30;99.90;;;;;;7336051;32;20119;-55
2023/03/13 18:42:06;;;;;;;8.57;1.55;;;13.30;99.90;;;;;;7337147;32;20264;-55
2023/03/13 18:46:26;;;;;;;5.95;1.42;;;13.30;99.90;;;;;;7334346;32;20434;-55
2023/03/13 18:50:30;;;;;;;5.80;1.55;;;13.30;99.90;;;;;;7337782;32;20144;-56
2023/03/13 18:54:33;;;;;;;6.62;1.30;;;13.30;99.90;;;;;;7338589;32;20352;-55
2023/03/13 18:58:34;;;;;;;4.40;1.58;;;13.20;99.90;;;;;;7334673;32;20103;-55
2023/03/13 19:02:36;;;;;;;8.25;1.58;;;13.30;99.90;;;;;;7337770;32;20220;-56
2023/03/13 19:06:38;;;;;;;4.80;1.40;;;13.10;99.90;;;;;;7334419;32;20145;-55
2023/03/13 19:10:40;;;;;;;5.78;1.50;;;13.10;99.90;;;;;;7326925;32;20308;-55
2023/03/13 19:14:42;;;;;;;4.60;1.40;;;13.10;99.90;;;;;;7334719;32;20238;-56
2023/03/13 19:18:45;;;;;;;3.90;1.50;;;12.90;99.90;;;;;;7342858;32;20111;-56
2023/03/13 19:22:47;;;;;;;6.78;1.50;;;12.90;99.90;;;;;;7338277;32;20178;-55
2023/03/13 19:26:57;;;;;;;8.30;1.45;;;13.00;99.90;;;;;;7326234;32;20163;-56
2023/03/13 19:30:58;;;;;;;4.62;1.23;;;13.00;99.90;;;;;;7332614;32;20496;-56
2023/03/13 19:35:00;;;;;;;7.15;1.62;;;13.00;99.90;;;;;;7330452;32;20138;-56
2023/03/13 19:39:11;;;;;;;6.60;2.00;;;12.90;99.90;;;;;;7329190;32;21043;-56
2023/03/13 19:43:13;;;;;;;3.83;1.67;;;12.80;99.90;;;;;;7333242;32;20229;-56
2023/03/13 19:47:14;;;;;;;6.30;1.70;;;12.80;99.90;;;;;;7334867;32;20125;-56
2023/03/13 19:51:16;;;;;;;8.40;1.80;;;12.70;99.90;;;;;;7340978;32;20205;-56
2023/03/13 19:55:18;;;;;;;4.50;1.33;;;12.70;99.90;;;;;;7339306;32;20325;-56
2023/03/13 19:59:22;;;;;;;7.12;1.80;;;12.50;99.90;;;;;;7330580;32;20123;-56
2023/03/13 20:03:24;;;;;;;5.78;1.67;;;12.50;99.90;;;;;;7326039;32;20115;-56
2023/03/13 20:07:25;;;;;;;6.78;1.30;;;12.50;99.90;;;;;;7341695;32;20195;-56
2023/03/13 20:11:28;;;;;;;7.03;1.58;;;12.50;99.90;;;;;;7337388;32;20134;-57
2023/03/13 20:15:30;;;;;;;4.70;1.35;;;12.40;99.90;;;;;;7344162;32;20118;-56
2023/03/13 20:19:32;;;;;;;5.20;1.50;;;12.40;99.90;;;;;;7338550;32;20131;-56
2023/03/13 20:23:34;;;;;;;6.95;1.48;;;12.30;99.90;;;;;;7340743;32;20731;-56
2023/03/13 20:27:36;;;;;;;7.12;1.73;;;12.20;99.90;;;;;;7338318;32;20167;-56
2023/03/13 20:31:38;;;;;;;7.05;1.87;;;12.20;99.90;;;;;;7336091;32;20122;-56
2023/03/13 20:35:40;;;;;;;8.32;2.00;;;12.20;99.90;;;;;;7341773;32;20518;-56
2023/03/13 20:39:41;;;;;;;5.95;1.73;;;12.10;99.90;;;;;;7335507;32;20133;-55
2023/03/13 20:43:43;;;;;;;7.25;1.90;;;12.10;99.90;;;;;;7334947;32;20234;-56
2023/03/13 20:47:45;;;;;;;4.87;1.62;;;12.10;99.90;;;;;;7342645;32;21443;-55
2023/03/13 20:51:46;;;;;;;8.50;1.60;;;12.00;99.90;;;;;;7333506;32;20218;-55
2023/03/13 20:55:48;;;;;;;3.33;1.30;;;12.00;99.90;;;;;;7344310;32;20195;-55
2023/03/13 20:59:50;;;;;;;6.75;1.70;;;12.00;99.90;;;;;;7348878;32;20100;-56
2023/03/13 21:03:52;;;;;;;7.47;1.92;;;12.00;99.90;;;;;;7338277;32;20678;-55
2023/03/13 21:07:54;;;;;;;9.45;1.75;;;12.00;99.90;;;;;;7339794;32;20186;-55
2023/03/13 21:11:56;;;;;;;5.10;1.30;;;11.90;99.90;;;;;;7335085;32;20716;-55
2023/03/13 21:16:01;;;;;;;5.15;1.40;;;11.90;99.90;;;;;;7337254;32;20586;-57